Time;durP1;ratioP1;P1;durP2;ratioP2;P2;SDS_P1;SDS_P2;PMS_P1;PMS_P2;Temp;Humidity;BMP_temperature;BMP_pressure;BME280_temperature;BME280_humidity;BME280_pressure;Samples;Min_cycle;Max_cycle;Signal;HPM_P1;HPM_P2
2023/09/07 00:02:00;;;;;;;;;11.00;11.00;;;;;;;;5091089;27;45399;-81
2023/09/07 00:04:31;;;;;;;;;7.33;7.00;;;;;;;;5066189;28;45612;-83
2023/09/07 00:07:00;;;;;;;;;7.33;7.33;;;;;;;;5072519;27;45810;-83
2023/09/07 00:09:27;;;;;;;;;9.67;9.00;;;;;;;;5088499;27;45832;-81
2023/09/07 00:11:59;;;;;;;;;6.50;6.50;;;;;;;;5071178;27;45619;-82
2023/09/07 00:14:25;;;;;;;;;11.33;9.00;;;;;;;;5084063;27;45424;-80
2023/09/07 00:16:51;;;;;;;;;11.33;9.00;;;;;;;;5063899;28;45746;-82
2023/09/07 00:19:19;;;;;;;;;7.67;7.67;;;;;;;;5080510;27;45993;-82
2023/09/07 00:21:47;;;;;;;;;9.00;6.67;;;;;;;;5072063;27;45735;-80
2023/09/07 00:24:16;;;;;;;;;10.33;10.33;;;;;;;;5064088;27;45464;-81
2023/09/07 00:26:41;;;;;;;;;12.00;7.00;;;;;;;;5072242;27;46916;-79
2023/09/07 00:29:06;;;;;;;;;10.67;9.67;;;;;;;;5061175;27;48235;-80
2023/09/07 00:31:32;;;;;;;;;10.00;8.00;;;;;;;;5075880;27;45927;-80
2023/09/07 00:33:57;;;;;;;;;6.33;6.33;;;;;;;;5063366;27;45945;-82
2023/09/07 00:36:23;;;;;;;;;9.00;9.00;;;;;;;;5056428;27;45821;-83
2023/09/07 00:38:49;;;;;;;;;11.33;9.33;;;;;;;;5060553;27;47549;-82
2023/09/07 00:41:14;;;;;;;;;7.00;6.00;;;;;;;;5092062;27;45528;-81
2023/09/07 00:43:45;;;;;;;;;8.50;8.50;;;;;;;;5091891;27;45687;-83
2023/09/07 00:46:16;;;;;;;;;10.33;9.33;;;;;;;;5060491;27;45484;-80
2023/09/07 00:48:42;;;;;;;;;13.33;8.00;;;;;;;;5092783;27;45345;-82
2023/09/07 00:51:09;;;;;;;;;12.67;7.67;;;;;;;;5083993;27;45751;-83
2023/09/07 00:53:57;;;;;;;;;7.67;7.67;;;;;;;;5067455;27;45579;-83
2023/09/07 00:56:34;;;;;;;;;7.75;7.00;;;;;;;;5074603;27;45600;-81
2023/09/07 00:59:00;;;;;;;;;9.00;8.33;;;;;;;;5082832;27;46334;-84
2023/09/07 01:01:26;;;;;;;;;7.00;7.00;;;;;;;;5087428;27;45876;-83
2023/09/07 01:03:53;;;;;;;;;8.00;8.00;;;;;;;;5072212;27;45831;-83
2023/09/07 01:06:33;;;;;;;;;7.33;6.67;;;;;;;;5082004;27;45489;-83
2023/09/07 01:11:56;;;;;;;;;8.33;6.67;;;;;;;;5073703;27;45866;-84
2023/09/07 01:14:31;;;;;;;;;9.67;8.33;;;;;;;;5068156;27;45942;-82
2023/09/07 01:17:05;;;;;;;;;11.00;9.00;;;;;;;;5083480;27;45653;-82
2023/09/07 01:19:36;;;;;;;;;7.67;7.33;;;;;;;;5072352;27;47448;-84
2023/09/07 01:22:05;;;;;;;;;8.00;8.00;;;;;;;;5081636;27;45413;-85
2023/09/07 01:24:39;;;;;;;;;10.67;9.00;;;;;;;;5069097;27;45690;-81
2023/09/07 01:27:08;;;;;;;;;11.00;10.67;;;;;;;;5067622;28;45670;-83
2023/09/07 01:29:38;;;;;;;;;11.67;10.00;;;;;;;;5085231;27;46186;-84
2023/09/07 01:32:03;;;;;;;;;9.00;7.33;;;;;;;;5068947;28;45994;-82
2023/09/07 01:34:29;;;;;;;;;10.00;10.00;;;;;;;;5067780;27;45399;-81
2023/09/07 01:36:54;;;;;;;;;16.67;10.33;;;;;;;;5080930;27;45122;-82
2023/09/07 01:39:20;;;;;;;;;13.67;12.00;;;;;;;;5060996;27;46975;-81
2023/09/07 01:41:46;;;;;;;;;14.00;12.00;;;;;;;;5086100;27;45420;-81
2023/09/07 01:44:11;;;;;;;;;13.00;11.33;;;;;;;;5066260;27;45450;-83
2023/09/07 01:46:36;;;;;;;;;5.00;5.00;;;;;;;;5072795;27;45329;-83
2023/09/07 01:49:05;;;;;;;;;13.67;12.00;;;;;;;;5072253;27;45536;-82
2023/09/07 01:51:30;;;;;;;;;13.33;10.00;;;;;;;;5055477;27;45827;-81
2023/09/07 01:57:24;;;;;;;;;8.33;8.33;;;;;;;;5059737;27;45548;-81
2023/09/07 02:00:23;;;;;;;;;;;;;;;;;;;;;
2023/09/07 02:02:58;;;;;;;;;8.67;7.67;;;;;;;;5072676;27;72159;-81
2023/09/07 02:05:23;;;;;;;;;7.67;7.67;;;;;;;;5067301;28;45397;-79
2023/09/07 02:07:49;;;;;;;;;11.67;10.67;;;;;;;;5067295;27;47305;-83
2023/09/07 02:10:15;;;;;;;;;9.67;8.67;;;;;;;;5065213;28;46201;-80
2023/09/07 02:12:40;;;;;;;;;9.33;9.00;;;;;;;;5085596;27;45448;-81
2023/09/07 02:15:06;;;;;;;;;11.00;7.33;;;;;;;;5084686;27;45755;-80
2023/09/07 02:17:32;;;;;;;;;9.33;8.67;;;;;;;;5085496;27;45642;-81
2023/09/07 02:19:58;;;;;;;;;11.00;10.00;;;;;;;;5086759;27;46732;-80
2023/09/07 02:22:23;;;;;;;;;8.67;7.67;;;;;;;;5084172;27;45854;-82
2023/09/07 02:24:52;;;;;;;;;6.33;5.00;;;;;;;;5057900;28;45573;-81
2023/09/07 02:27:18;;;;;;;;;9.00;7.67;;;;;;;;5080653;27;45753;-82
2023/09/07 02:29:43;;;;;;;;;13.67;8.67;;;;;;;;5079359;27;46577;-81
2023/09/07 02:32:09;;;;;;;;;11.00;10.00;;;;;;;;5090264;27;45696;-82
2023/09/07 02:34:36;;;;;;;;;9.33;9.33;;;;;;;;5066783;28;45868;-82
2023/09/07 02:37:03;;;;;;;;;12.67;11.33;;;;;;;;5062303;27;45519;-82
2023/09/07 02:39:28;;;;;;;;;11.33;7.67;;;;;;;;5071857;27;47870;-81
2023/09/07 02:41:54;;;;;;;;;10.00;9.33;;;;;;;;5081674;27;45519;-82
2023/09/07 02:44:20;;;;;;;;;11.00;10.67;;;;;;;;5084843;27;45827;-80
2023/09/07 02:46:45;;;;;;;;;10.00;9.33;;;;;;;;5087368;27;47673;-81
2023/09/07 02:49:10;;;;;;;;;11.00;10.00;;;;;;;;5062480;27;45971;-81
2023/09/07 02:51:39;;;;;;;;;15.00;12.67;;;;;;;;5064999;27;45741;-81
2023/09/07 02:54:05;;;;;;;;;12.33;12.33;;;;;;;;5089335;27;45562;-80
2023/09/07 02:56:30;;;;;;;;;12.33;12.00;;;;;;;;5091885;27;45872;-82
2023/09/07 02:58:56;;;;;;;;;10.00;8.00;;;;;;;;5063264;27;46993;-82
2023/09/07 03:01:22;;;;;;;;;12.33;9.67;;;;;;;;5091176;27;46696;-80
2023/09/07 03:03:47;;;;;;;;;12.00;12.00;;;;;;;;5059893;27;45481;-80
2023/09/07 03:06:18;;;;;;;;;14.33;11.67;;;;;;;;5079831;27;45499;-81
2023/09/07 03:08:44;;;;;;;;;12.33;12.33;;;;;;;;5081345;27;45426;-80
2023/09/07 03:11:09;;;;;;;;;13.00;13.00;;;;;;;;5075814;27;45450;-78
2023/09/07 03:13:35;;;;;;;;;14.00;10.33;;;;;;;;5089392;27;45578;-79
2023/09/07 03:16:00;;;;;;;;;16.67;12.67;;;;;;;;5065147;27;45644;-81
2023/09/07 03:18:26;;;;;;;;;13.00;11.33;;;;;;;;5088387;27;46553;-81
2023/09/07 03:20:53;;;;;;;;;12.67;8.33;;;;;;;;5095005;27;45705;-82
2023/09/07 03:23:19;;;;;;;;;14.67;12.00;;;;;;;;5091874;27;45730;-81
2023/09/07 03:25:47;;;;;;;;;13.33;11.00;;;;;;;;5076733;27;45346;-82
2023/09/07 03:28:12;;;;;;;;;10.00;10.00;;;;;;;;5091566;27;46160;-80
2023/09/07 03:30:38;;;;;;;;;14.00;9.00;;;;;;;;5092652;27;45573;-81
2023/09/07 03:33:07;;;;;;;;;11.00;11.00;;;;;;;;5087617;27;45826;-82
2023/09/07 03:35:38;;;;;;;;;10.67;10.67;;;;;;;;5096643;27;45723;-81
2023/09/07 03:38:03;;;;;;;;;13.00;10.00;;;;;;;;5079527;27;47668;-82
2023/09/07 03:40:30;;;;;;;;;11.67;10.33;;;;;;;;5078641;27;45429;-81
2023/09/07 03:42:56;;;;;;;;;13.00;10.67;;;;;;;;5073426;27;45355;-82
2023/09/07 03:45:21;;;;;;;;;11.67;11.33;;;;;;;;5076821;27;46457;-82
2023/09/07 03:47:47;;;;;;;;;7.67;7.67;;;;;;;;5095829;27;45422;-81
2023/09/07 03:50:12;;;;;;;;;17.67;11.67;;;;;;;;5075719;27;45782;-80
2023/09/07 03:52:37;;;;;;;;;11.00;11.00;;;;;;;;5088543;27;45649;-81
2023/09/07 03:55:03;;;;;;;;;17.00;12.00;;;;;;;;5075895;27;46827;-83
2023/09/07 03:57:32;;;;;;;;;4.33;3.00;;;;;;;;5074165;27;47149;-81
2023/09/07 03:59:57;;;;;;;;;17.33;12.00;;;;;;;;5091288;27;45760;-83
2023/09/07 04:02:23;;;;;;;;;13.67;11.67;;;;;;;;5086760;27;45771;-81
2023/09/07 04:04:52;;;;;;;;;14.67;13.33;;;;;;;;5091999;27;45884;-88
2023/09/07 04:07:24;;;;;;;;;18.33;14.00;;;;;;;;5077962;27;45569;-86
2023/09/07 04:10:00;;;;;;;;;;;;;;;;;;;;;
2023/09/07 04:12:26;;;;;;;;;16.33;13.33;;;;;;;;5108530;27;66874;-87
2023/09/07 04:15:26;;;;;;;;;16.00;12.67;;;;;;;;5082337;27;46212;-88
2023/09/07 04:20:46;;;;;;;;;13.33;13.33;;;;;;;;5094902;27;45367;-87
2023/09/07 04:23:18;;;;;;;;;14.00;14.00;;;;;;;;5095095;27;45486;-88
2023/09/07 04:25:47;;;;;;;;;10.33;9.67;;;;;;;;5078600;27;45658;-87
2023/09/07 04:28:12;;;;;;;;;12.00;10.33;;;;;;;;5084039;27;46617;-87
2023/09/07 04:30:39;;;;;;;;;16.00;15.00;;;;;;;;5095590;27;45463;-90
2023/09/07 04:33:24;;;;;;;;;16.00;13.33;;;;;;;;5076949;27;45589;-88
2023/09/07 04:36:23;;;;;;;;;16.67;13.33;;;;;;;;5077342;27;45313;-85
2023/09/07 04:39:08;;;;;;;;;15.00;13.00;;;;;;;;5088234;27;45492;-88
2023/09/07 04:41:43;;;;;;;;;17.00;16.00;;;;;;;;5085695;27;45643;-89
2023/09/07 04:44:11;;;;;;;;;24.00;18.33;;;;;;;;5095384;27;45802;-86
2023/09/07 04:46:41;;;;;;;;;23.67;17.33;;;;;;;;5094328;27;45453;-86
2023/09/07 04:49:24;;;;;;;;;16.67;16.33;;;;;;;;5092478;27;45531;-85
2023/09/07 04:51:52;;;;;;;;;16.67;16.67;;;;;;;;5072656;27;45283;-88
2023/09/07 04:54:18;;;;;;;;;14.67;13.33;;;;;;;;5080359;27;45823;-87
2023/09/07 04:56:44;;;;;;;;;20.33;15.67;;;;;;;;5078644;27;45841;-86
2023/09/07 04:59:14;;;;;;;;;21.67;16.33;;;;;;;;5087577;27;47335;-83
2023/09/07 05:01:41;;;;;;;;;12.00;12.00;;;;;;;;5089414;27;44847;-87
2023/09/07 05:04:29;;;;;;;;;13.67;13.67;;;;;;;;5084014;27;45369;-89
2023/09/07 05:06:58;;;;;;;;;13.33;12.33;;;;;;;;5093982;27;45548;-87
2023/09/07 05:09:29;;;;;;;;;16.67;14.00;;;;;;;;5087269;27;45586;-87
2023/09/07 05:11:58;;;;;;;;;22.67;17.67;;;;;;;;5076490;27;45755;-85
2023/09/07 05:14:26;;;;;;;;;15.33;11.00;;;;;;;;5075963;27;45835;-86
2023/09/07 05:29:29;;;;;;;;;16.67;15.33;;;;;;;;4997312;28;45369;-84
2023/09/07 05:41:53;;;;;;;;;14.67;12.00;;;;;;;;4932157;28;45920;-89
2023/09/07 05:47:28;;;;;;;;;21.00;15.67;;;;;;;;4899011;28;45632;-87
2023/09/07 05:49:54;;;;;;;;;18.33;15.67;;;;;;;;4896268;29;46026;-85
2023/09/07 05:56:04;;;;;;;;;16.67;12.33;;;;;;;;4892465;28;47131;-87
2023/09/07 06:08:32;;;;;;;;;21.00;16.67;;;;;;;;4995262;28;45530;-89
2023/09/07 06:14:06;;;;;;;;;14.33;14.33;;;;;;;;5023104;28;45529;-88
2023/09/07 06:16:32;;;;;;;;;20.33;14.67;;;;;;;;5049393;28;45287;-84
2023/09/07 06:18:58;;;;;;;;;18.67;16.00;;;;;;;;5027112;28;46902;-85
2023/09/07 06:21:26;;;;;;;;;14.67;14.00;;;;;;;;5043382;28;45561;-84
2023/09/07 06:23:51;;;;;;;;;10.33;10.33;;;;;;;;5048412;28;45406;-86
2023/09/07 06:26:30;;;;;;;;;16.33;14.67;;;;;;;;5026511;28;45707;-86
2023/09/07 06:28:55;;;;;;;;;21.50;16.25;;;;;;;;5050478;28;45879;-82
2023/09/07 06:31:21;;;;;;;;;18.25;18.25;;;;;;;;5069858;27;45388;-81
2023/09/07 06:33:46;;;;;;;;;11.75;10.75;;;;;;;;5059652;28;45905;-80
2023/09/07 06:36:11;;;;;;;;;13.50;10.00;;;;;;;;5058426;28;45587;-78
2023/09/07 06:38:40;;;;;;;;;9.75;9.25;;;;;;;;5057254;28;46081;-85
2023/09/07 06:41:07;;;;;;;;;8.75;8.75;;;;;;;;5056006;28;45734;-79
2023/09/07 06:43:32;;;;;;;;;7.00;7.00;;;;;;;;5043098;28;45475;-79
2023/09/07 06:46:10;;;;;;;;;8.75;8.50;;;;;;;;5060803;28;45568;-87
2023/09/07 06:48:35;;;;;;;;;9.00;8.25;;;;;;;;5050729;28;46619;-83
2023/09/07 06:51:03;;;;;;;;;18.00;10.50;;;;;;;;5052561;28;45541;-82
2023/09/07 06:53:28;;;;;;;;;10.75;10.75;;;;;;;;5071784;28;45804;-82
2023/09/07 06:55:57;;;;;;;;;10.00;8.25;;;;;;;;5052070;28;45972;-83
2023/09/07 06:58:22;;;;;;;;;11.50;10.50;;;;;;;;5070791;28;46287;-83
2023/09/07 07:00:48;;;;;;;;;8.00;7.50;;;;;;;;5076213;28;45458;-83
2023/09/07 07:03:13;;;;;;;;;8.00;5.75;;;;;;;;5053829;28;46727;-80
2023/09/07 07:05:38;;;;;;;;;11.25;10.00;;;;;;;;5069916;28;45446;-82
2023/09/07 07:08:04;;;;;;;;;10.50;9.25;;;;;;;;5074838;28;45341;-80
2023/09/07 07:10:29;;;;;;;;;10.75;9.00;;;;;;;;5074113;28;45739;-80
2023/09/07 07:12:54;;;;;;;;;10.75;10.00;;;;;;;;5074883;28;45650;-81
2023/09/07 07:15:20;;;;;;;;;14.00;11.75;;;;;;;;5074246;28;45944;-82
2023/09/07 07:17:45;;;;;;;;;12.33;10.67;;;;;;;;5073860;28;45595;-81
2023/09/07 07:20:10;;;;;;;;;12.50;12.50;;;;;;;;5069453;28;45490;-81
2023/09/07 07:22:36;;;;;;;;;12.00;9.00;;;;;;;;5075847;28;45475;-84
2023/09/07 07:25:05;;;;;;;;;8.25;7.25;;;;;;;;5055242;28;45929;-85
2023/09/07 07:27:30;;;;;;;;;12.00;11.00;;;;;;;;5066234;28;45932;-83
2023/09/07 07:29:55;;;;;;;;;13.00;10.25;;;;;;;;5059111;28;45826;-83
2023/09/07 07:32:21;;;;;;;;;10.75;10.75;;;;;;;;5073266;28;45808;-83
2023/09/07 07:34:46;;;;;;;;;15.25;12.75;;;;;;;;5070928;28;45757;-82
2023/09/07 07:37:12;;;;;;;;;13.25;12.00;;;;;;;;5070503;28;47275;-83
2023/09/07 07:39:37;;;;;;;;;11.25;9.50;;;;;;;;5078336;28;44796;-82
2023/09/07 07:42:04;;;;;;;;;12.00;12.00;;;;;;;;5070324;28;45390;-85
2023/09/07 07:44:29;;;;;;;;;10.75;7.75;;;;;;;;5072883;28;45426;-85
2023/09/07 07:46:55;;;;;;;;;13.75;11.00;;;;;;;;5077528;28;45366;-84
2023/09/07 07:49:20;;;;;;;;;9.75;9.75;;;;;;;;5072675;28;45413;-81
2023/09/07 07:51:45;;;;;;;;;16.75;11.75;;;;;;;;5076113;28;45831;-82
2023/09/07 07:54:11;;;;;;;;;14.50;14.00;;;;;;;;5078379;28;45962;-83
2023/09/07 07:56:38;;;;;;;;;12.50;9.50;;;;;;;;5096483;27;45503;-83
2023/09/07 07:59:03;;;;;;;;;11.50;8.75;;;;;;;;5098003;27;45396;-82
2023/09/07 08:01:29;;;;;;;;;11.50;11.00;;;;;;;;5098385;27;45551;-82
2023/09/07 08:03:55;;;;;;;;;11.00;10.50;;;;;;;;5079031;27;45890;-82
2023/09/07 08:06:20;;;;;;;;;11.50;10.25;;;;;;;;5071230;27;46967;-81
2023/09/07 08:08:46;;;;;;;;;15.00;12.75;;;;;;;;5072153;27;45697;-82
2023/09/07 08:11:12;;;;;;;;;9.50;8.25;;;;;;;;5097039;27;45545;-83
2023/09/07 08:13:37;;;;;;;;;11.00;10.75;;;;;;;;5098893;27;45297;-82
2023/09/07 08:16:03;;;;;;;;;8.50;8.50;;;;;;;;5078953;27;46924;-82
2023/09/07 08:18:30;;;;;;;;;11.25;11.25;;;;;;;;5083138;27;45311;-84
2023/09/07 08:20:55;;;;;;;;;12.25;10.50;;;;;;;;5071451;28;45443;-84
2023/09/07 08:23:22;;;;;;;;;12.75;12.75;;;;;;;;5073579;27;46449;-82
2023/09/07 08:25:47;;;;;;;;;12.00;11.50;;;;;;;;5096965;27;45810;-81
2023/09/07 08:28:12;;;;;;;;;15.33;15.33;;;;;;;;5098324;27;45272;-83
2023/09/07 08:30:38;;;;;;;;;6.25;6.25;;;;;;;;5092023;27;45438;-83
2023/09/07 08:33:05;;;;;;;;;11.00;11.00;;;;;;;;5079361;27;45892;-81
2023/09/07 08:35:30;;;;;;;;;14.67;12.33;;;;;;;;5096541;27;46204;-81
2023/09/07 08:37:57;;;;;;;;;7.67;7.33;;;;;;;;5097635;27;45473;-81
2023/09/07 08:40:23;;;;;;;;;17.75;15.75;;;;;;;;5078312;27;45870;-81
2023/09/07 08:42:48;;;;;;;;;13.50;13.25;;;;;;;;5091940;27;45492;-81
2023/09/07 08:45:18;;;;;;;;;56.00;41.00;;;;;;;;5097542;27;45449;-81
2023/09/07 08:47:45;;;;;;;;;19.67;14.33;;;;;;;;5079116;27;45699;-82
2023/09/07 08:50:10;;;;;;;;;16.00;15.33;;;;;;;;5098789;27;44813;-82
2023/09/07 08:52:36;;;;;;;;;17.00;13.00;;;;;;;;5094551;27;45524;-81
2023/09/07 08:55:04;;;;;;;;;11.67;11.67;;;;;;;;5098266;27;45403;-82
2023/09/07 08:57:29;;;;;;;;;12.75;12.50;;;;;;;;5097135;27;45789;-82
2023/09/07 08:59:55;;;;;;;;;7.25;7.25;;;;;;;;5073089;27;45607;-83
2023/09/07 09:02:20;;;;;;;;;12.50;10.50;;;;;;;;5096907;27;45633;-82
2023/09/07 09:04:45;;;;;;;;;12.75;11.75;;;;;;;;5077701;27;46846;-81
2023/09/07 09:07:10;;;;;;;;;15.25;14.00;;;;;;;;5069383;27;45580;-85
2023/09/07 09:09:38;;;;;;;;;15.25;15.25;;;;;;;;5088571;27;45377;-84
2023/09/07 09:12:07;;;;;;;;;13.50;10.75;;;;;;;;5083076;27;45749;-81
2023/09/07 09:14:33;;;;;;;;;15.00;13.00;;;;;;;;5090444;27;45698;-83
2023/09/07 09:16:58;;;;;;;;;12.75;12.75;;;;;;;;5062948;27;45776;-82
2023/09/07 09:19:30;;;;;;;;;14.50;12.00;;;;;;;;5079724;27;45418;-80
2023/09/07 09:21:56;;;;;;;;;17.25;13.50;;;;;;;;5096881;27;45471;-82
2023/09/07 09:24:21;;;;;;;;;16.00;13.00;;;;;;;;5076767;27;47565;-82
2023/09/07 09:26:46;;;;;;;;;16.25;14.50;;;;;;;;5076334;27;46270;-82
2023/09/07 09:29:12;;;;;;;;;15.00;12.00;;;;;;;;5084635;27;45444;-83
2023/09/07 09:31:37;;;;;;;;;14.75;9.75;;;;;;;;5096717;27;45678;-80
2023/09/07 09:34:02;;;;;;;;;11.50;11.00;;;;;;;;5071337;27;47193;-81
2023/09/07 09:36:35;;;;;;;;;11.00;11.00;;;;;;;;5077048;27;45713;-81
2023/09/07 09:39:00;;;;;;;;;9.50;9.50;;;;;;;;5091536;27;46303;-79
2023/09/07 09:41:26;;;;;;;;;13.00;11.00;;;;;;;;5093890;27;45756;-82
2023/09/07 09:43:55;;;;;;;;;9.75;9.75;;;;;;;;5085877;27;45658;-86
2023/09/07 09:46:22;;;;;;;;;5.00;3.00;;;;;;;;5088867;27;45705;-84
2023/09/07 09:48:51;;;;;;;;;7.00;5.00;;;;;;;;5092192;27;45818;-85
2023/09/07 09:51:17;;;;;;;;;11.00;10.50;;;;;;;;5084005;27;45544;-78
2023/09/07 09:53:44;;;;;;;;;16.33;14.00;;;;;;;;5092252;27;45756;-78
2023/09/07 09:56:09;;;;;;;;;26.33;21.00;;;;;;;;5085152;27;45814;-81
2023/09/07 09:58:35;;;;;;;;;8.75;8.00;;;;;;;;5089109;27;45853;-82
2023/09/07 10:01:00;;;;;;;;;13.75;8.75;;;;;;;;5091640;27;45483;-83
2023/09/07 10:03:45;;;;;;;;;6.75;6.75;;;;;;;;5067415;27;46970;-85
2023/09/07 10:06:12;;;;;;;;;9.75;9.00;;;;;;;;5092168;27;45514;-84
2023/09/07 10:08:37;;;;;;;;;8.67;8.67;;;;;;;;5088460;27;45458;-81
2023/09/07 10:11:08;;;;;;;;;11.00;7.00;;;;;;;;5095250;27;45402;-85
2023/09/07 10:13:36;;;;;;;;;10.00;10.00;;;;;;;;5081673;27;46028;-81
2023/09/07 10:16:04;;;;;;;;;12.67;9.67;;;;;;;;5092769;27;45386;-82
2023/09/07 10:18:36;;;;;;;;;10.00;9.50;;;;;;;;5085528;27;45529;-85
2023/09/07 10:21:02;;;;;;;;;10.25;10.00;;;;;;;;5086004;27;45521;-82
2023/09/07 10:23:54;;;;;;;;;4.50;4.50;;;;;;;;5073204;27;46024;-83
2023/09/07 10:26:23;;;;;;;;;12.00;9.50;;;;;;;;5090993;27;45417;-83
2023/09/07 10:29:03;;;;;;;;;9.67;9.33;;;;;;;;5073613;27;45420;-82
2023/09/07 10:31:30;;;;;;;;;44.67;36.67;;;;;;;;5072110;27;46133;-84
2023/09/07 10:33:55;;;;;;;;;12.33;11.00;;;;;;;;5095430;27;45786;-81
2023/09/07 10:36:22;;;;;;;;;9.25;9.25;;;;;;;;5084608;27;45500;-82
2023/09/07 10:38:47;;;;;;;;;9.67;9.33;;;;;;;;5072536;27;45556;-81
2023/09/07 10:41:13;;;;;;;;;9.00;7.75;;;;;;;;5074622;27;45469;-83
2023/09/07 10:43:47;;;;;;;;;12.00;11.00;;;;;;;;5077664;27;45652;-83
2023/09/07 10:46:15;;;;;;;;;9.33;9.33;;;;;;;;5075594;27;45483;-86
2023/09/07 10:48:44;;;;;;;;;15.75;12.25;;;;;;;;5101005;27;45814;-85
2023/09/07 10:51:19;;;;;;;;;10.75;10.75;;;;;;;;5092121;27;44869;-85
2023/09/07 10:53:46;;;;;;;;;11.00;10.33;;;;;;;;5087349;27;45654;-85
2023/09/07 10:56:12;;;;;;;;;10.00;10.00;;;;;;;;5088707;27;45416;-85
2023/09/07 10:58:41;;;;;;;;;9.50;8.00;;;;;;;;5097002;27;45693;-85
2023/09/07 11:01:07;;;;;;;;;12.00;10.25;;;;;;;;5073745;27;45900;-83
2023/09/07 11:03:36;;;;;;;;;9.75;7.75;;;;;;;;5080235;27;45400;-87
2023/09/07 11:06:23;;;;;;;;;8.50;8.50;;;;;;;;5097660;27;45747;-84
2023/09/07 11:08:48;;;;;;;;;12.25;11.00;;;;;;;;5096382;27;45572;-83
2023/09/07 11:11:14;;;;;;;;;9.50;9.50;;;;;;;;5088966;27;45958;-86
2023/09/07 11:13:39;;;;;;;;;10.75;9.75;;;;;;;;5095318;27;45573;-83
2023/09/07 11:16:07;;;;;;;;;9.50;9.50;;;;;;;;5096453;27;45842;-84
2023/09/07 11:18:33;;;;;;;;;12.75;10.75;;;;;;;;5075887;27;45517;-83
2023/09/07 11:20:59;;;;;;;;;9.25;9.25;;;;;;;;5076167;27;46760;-83
2023/09/07 11:23:24;;;;;;;;;12.25;11.00;;;;;;;;5095913;27;46020;-82
2023/09/07 11:25:50;;;;;;;;;11.75;10.00;;;;;;;;5095788;27;45504;-84
2023/09/07 11:28:19;;;;;;;;;10.75;10.75;;;;;;;;5089195;27;45890;-87
2023/09/07 11:30:51;;;;;;;;;11.00;11.00;;;;;;;;5076837;27;46163;-83
2023/09/07 11:33:17;;;;;;;;;13.50;11.25;;;;;;;;5088899;27;45466;-85
2023/09/07 11:35:42;;;;;;;;;10.25;10.25;;;;;;;;5078717;27;45705;-84
2023/09/07 11:38:10;;;;;;;;;11.25;11.00;;;;;;;;5092647;27;45321;-84
2023/09/07 11:40:36;;;;;;;;;11.00;10.00;;;;;;;;5095969;27;45860;-82
2023/09/07 11:43:01;;;;;;;;;10.50;10.50;;;;;;;;5099424;27;45431;-83
2023/09/07 11:45:27;;;;;;;;;13.00;11.50;;;;;;;;5079596;27;45660;-82
2023/09/07 11:47:52;;;;;;;;;14.25;13.25;;;;;;;;5100417;27;45395;-84
2023/09/07 11:50:18;;;;;;;;;16.00;14.00;;;;;;;;5099283;27;45568;-83
2023/09/07 11:52:44;;;;;;;;;11.75;11.00;;;;;;;;5067285;27;46358;-83
2023/09/07 11:55:10;;;;;;;;;10.25;10.25;;;;;;;;5101219;27;45677;-82
2023/09/07 11:57:36;;;;;;;;;13.25;13.25;;;;;;;;5077384;27;45725;-83
2023/09/07 12:00:05;;;;;;;;;13.00;13.00;;;;;;;;5070856;27;45797;-86
2023/09/07 12:02:30;;;;;;;;;13.25;11.25;;;;;;;;5082793;27;46832;-84
2023/09/07 12:04:56;;;;;;;;;14.00;13.50;;;;;;;;5097858;27;45504;-86
2023/09/07 12:07:21;;;;;;;;;12.50;12.50;;;;;;;;5101415;27;45744;-84
2023/09/07 12:09:47;;;;;;;;;14.50;12.75;;;;;;;;5088244;27;45898;-87
2023/09/07 12:12:12;;;;;;;;;18.00;14.50;;;;;;;;5095613;27;45936;-83
2023/09/07 12:14:37;;;;;;;;;14.75;13.75;;;;;;;;5102311;27;45825;-84
2023/09/07 12:17:03;;;;;;;;;16.00;15.00;;;;;;;;5081934;27;45393;-81
2023/09/07 12:19:28;;;;;;;;;14.67;14.67;;;;;;;;5098808;27;45664;-83
2023/09/07 12:21:54;;;;;;;;;14.50;13.75;;;;;;;;5099058;27;46370;-82
2023/09/07 12:24:19;;;;;;;;;13.50;13.50;;;;;;;;5099798;27;45387;-80
2023/09/07 12:26:44;;;;;;;;;13.50;12.50;;;;;;;;5079616;27;45698;-82
2023/09/07 12:29:10;;;;;;;;;17.50;13.50;;;;;;;;5072548;28;45938;-83
2023/09/07 12:31:35;;;;;;;;;14.33;14.33;;;;;;;;5065563;28;47359;-85
2023/09/07 12:34:01;;;;;;;;;22.00;17.00;;;;;;;;5076925;28;46097;-82
2023/09/07 12:36:29;;;;;;;;;17.33;16.33;;;;;;;;5058295;28;45957;-80
2023/09/07 12:38:55;;;;;;;;;18.33;14.67;;;;;;;;5076399;28;46183;-84
2023/09/07 12:41:21;;;;;;;;;17.33;15.33;;;;;;;;5077002;28;46623;-83
2023/09/07 12:43:46;;;;;;;;;23.67;18.00;;;;;;;;5076160;28;45645;-84
2023/09/07 12:46:13;;;;;;;;;17.33;15.67;;;;;;;;5078158;28;45448;-88
2023/09/07 12:48:39;;;;;;;;;21.00;17.00;;;;;;;;5073879;28;45903;-84
2023/09/07 12:51:04;;;;;;;;;16.00;16.00;;;;;;;;5074733;28;45980;-84
2023/09/07 12:53:29;;;;;;;;;12.67;12.00;;;;;;;;5074727;28;45678;-86
2023/09/07 12:55:55;;;;;;;;;17.33;15.33;;;;;;;;5077109;28;45521;-84
2023/09/07 12:58:20;;;;;;;;;21.67;18.00;;;;;;;;5078081;28;45647;-84
2023/09/07 13:00:51;;;;;;;;;17.33;15.00;;;;;;;;5066876;28;45858;-81
2023/09/07 13:03:16;;;;;;;;;18.33;18.33;;;;;;;;5078333;28;45513;-85
2023/09/07 13:05:41;;;;;;;;;17.67;17.33;;;;;;;;5073770;28;45521;-85
2023/09/07 13:08:07;;;;;;;;;23.33;20.33;;;;;;;;5081850;28;45461;-83
2023/09/07 13:10:32;;;;;;;;;19.67;18.33;;;;;;;;5080275;27;46050;-82
2023/09/07 13:12:57;;;;;;;;;18.00;17.33;;;;;;;;5077238;28;45765;-83
2023/09/07 13:15:23;;;;;;;;;18.00;17.33;;;;;;;;5075654;28;45498;-83
2023/09/07 13:17:48;;;;;;;;;16.67;15.67;;;;;;;;5077167;28;45688;-81
2023/09/07 13:20:13;;;;;;;;;16.50;15.25;;;;;;;;5073211;28;45552;-82
2023/09/07 13:22:39;;;;;;;;;15.00;14.33;;;;;;;;5064885;28;45510;-81
2023/09/07 13:25:05;;;;;;;;;19.00;17.33;;;;;;;;5072450;28;45427;-83
2023/09/07 13:27:30;;;;;;;;;18.50;16.25;;;;;;;;5065710;28;45732;-84
2023/09/07 13:29:57;;;;;;;;;17.50;15.75;;;;;;;;5070486;28;46309;-82
2023/09/07 13:32:22;;;;;;;;;17.67;17.00;;;;;;;;5078320;28;45848;-82
2023/09/07 13:34:47;;;;;;;;;16.75;15.25;;;;;;;;5073458;28;45769;-85
2023/09/07 13:37:13;;;;;;;;;15.25;14.25;;;;;;;;5070408;28;45775;-82
2023/09/07 13:39:39;;;;;;;;;22.00;16.00;;;;;;;;5081279;28;46206;-84
2023/09/07 13:42:04;;;;;;;;;16.33;14.33;;;;;;;;5078332;28;45615;-83
2023/09/07 13:44:29;;;;;;;;;15.25;15.25;;;;;;;;5079623;28;47135;-83
2023/09/07 13:46:54;;;;;;;;;15.33;15.33;;;;;;;;5076582;28;45323;-82
2023/09/07 13:49:20;;;;;;;;;20.67;15.67;;;;;;;;5072948;28;46276;-82
2023/09/07 13:51:45;;;;;;;;;20.00;18.00;;;;;;;;5069927;28;45346;-81
2023/09/07 13:54:11;;;;;;;;;17.00;16.67;;;;;;;;5073363;28;45328;-83
2023/09/07 13:56:36;;;;;;;;;17.33;17.00;;;;;;;;5076566;28;45974;-86
2023/09/07 13:59:01;;;;;;;;;16.67;15.67;;;;;;;;5076012;28;47088;-81
2023/09/07 14:01:27;;;;;;;;;16.67;15.67;;;;;;;;5072718;28;45439;-83
2023/09/07 14:03:53;;;;;;;;;17.00;15.50;;;;;;;;5069046;28;45627;-81
2023/09/07 14:06:20;;;;;;;;;15.25;14.25;;;;;;;;5064012;28;45686;-83
2023/09/07 14:08:46;;;;;;;;;20.25;16.25;;;;;;;;5070293;28;45810;-84
2023/09/07 14:11:11;;;;;;;;;13.50;12.75;;;;;;;;5066033;28;45765;-83
2023/09/07 14:13:36;;;;;;;;;16.00;14.67;;;;;;;;5067104;28;47137;-83
2023/09/07 14:16:02;;;;;;;;;12.50;12.50;;;;;;;;5071264;28;45840;-82
2023/09/07 14:18:29;;;;;;;;;18.75;16.00;;;;;;;;5070075;28;46024;-83
2023/09/07 14:20:57;;;;;;;;;14.50;13.50;;;;;;;;5067121;28;45641;-84
2023/09/07 14:23:25;;;;;;;;;12.25;11.75;;;;;;;;5074793;28;45825;-82
2023/09/07 14:25:54;;;;;;;;;19.50;14.50;;;;;;;;5063463;28;45346;-85
2023/09/07 14:28:19;;;;;;;;;14.50;13.50;;;;;;;;5071943;28;45552;-81
2023/09/07 14:30:44;;;;;;;;;14.25;13.75;;;;;;;;5051625;28;45391;-83
2023/09/07 14:33:10;;;;;;;;;13.75;13.75;;;;;;;;5075829;28;45394;-84
2023/09/07 14:35:35;;;;;;;;;12.75;11.50;;;;;;;;5065012;28;45403;-83
2023/09/07 14:38:01;;;;;;;;;14.00;13.00;;;;;;;;5068749;28;45623;-84
2023/09/07 14:40:26;;;;;;;;;15.50;13.00;;;;;;;;5061626;27;45667;-86
2023/09/07 14:42:53;;;;;;;;;16.50;15.75;;;;;;;;5073020;28;45766;-82
2023/09/07 14:45:18;;;;;;;;;14.00;10.25;;;;;;;;5064340;28;45369;-85
2023/09/07 14:47:43;;;;;;;;;32.67;31.00;;;;;;;;5075548;28;46036;-82
2023/09/07 14:50:09;;;;;;;;;15.00;13.50;;;;;;;;5072798;28;44721;-86
2023/09/07 14:52:40;;;;;;;;;13.25;13.25;;;;;;;;5071331;28;45540;-86
2023/09/07 14:55:06;;;;;;;;;14.50;12.75;;;;;;;;5063869;28;46209;-85
2023/09/07 14:57:31;;;;;;;;;16.00;12.67;;;;;;;;5067872;28;47731;-84
2023/09/07 14:59:56;;;;;;;;;12.50;12.00;;;;;;;;5076927;28;45338;-84
2023/09/07 15:02:21;;;;;;;;;13.00;11.67;;;;;;;;5072426;28;45396;-88
2023/09/07 15:04:56;;;;;;;;;13.00;13.00;;;;;;;;5056253;28;45360;-85
2023/09/07 15:07:29;;;;;;;;;11.75;11.75;;;;;;;;5068616;28;47289;-83
2023/09/07 15:09:54;;;;;;;;;11.50;11.50;;;;;;;;5063374;28;45484;-85
2023/09/07 15:12:20;;;;;;;;;15.75;13.75;;;;;;;;5081959;28;45952;-84
2023/09/07 15:14:45;;;;;;;;;10.50;9.50;;;;;;;;5077783;28;46143;-83
2023/09/07 15:17:11;;;;;;;;;13.33;11.00;;;;;;;;5077512;28;45688;-82
2023/09/07 15:19:40;;;;;;;;;17.33;16.00;;;;;;;;5078491;28;45431;-83